createdAt,value
2022-09-07T00:00:31.724Z,1.80
2022-09-07T00:01:34.616Z,1.88
2022-09-07T00:02:37.323Z,1.91
2022-09-07T00:03:40.044Z,1.53
2022-09-07T00:04:42.870Z,1.68
2022-09-07T00:05:45.589Z,1.37
2022-09-07T00:06:48.778Z,1.32
2022-09-07T00:07:51.533Z,1.16
2022-09-07T00:08:54.314Z,1.10
2022-09-07T00:09:56.978Z,1.41
2022-09-07T00:10:59.749Z,1.99
2022-09-07T00:12:02.522Z,1.85
2022-09-07T00:13:05.497Z,1.75
2022-09-07T00:14:08.274Z,1.75
2022-09-07T00:15:10.942Z,1.52
2022-09-07T00:16:13.803Z,1.39
2022-09-07T00:17:16.486Z,1.51
2022-09-07T00:18:19.260Z,1.48
2022-09-07T00:19:22.343Z,1.25
2022-09-07T00:20:25.013Z,1.35
2022-09-07T00:21:27.785Z,1.64
2022-09-07T00:22:30.771Z,1.37
2022-09-07T00:23:33.524Z,1.35
2022-09-07T00:24:36.202Z,1.45
2022-09-07T00:25:38.865Z,1.42
2022-09-07T00:26:41.641Z,1.55
2022-09-07T00:27:44.410Z,1.51
2022-09-07T00:28:47.090Z,1.36
2022-09-07T00:29:49.750Z,1.45
2022-09-07T00:30:52.524Z,1.46
2022-09-07T00:31:55.389Z,1.71
2022-09-07T00:32:58.173Z,1.62
2022-09-07T00:34:00.842Z,1.29
2022-09-07T00:35:03.609Z,1.32
2022-09-07T00:36:06.384Z,1.29
2022-09-07T00:37:09.154Z,1.29
2022-09-07T00:38:11.833Z,1.55
2022-09-07T00:39:14.602Z,1.60
2022-09-07T00:40:17.276Z,1.73
2022-09-07T00:41:19.937Z,1.75
2022-09-07T00:42:22.710Z,1.73
2022-09-07T00:43:25.487Z,1.59
2022-09-07T00:44:28.254Z,1.57
2022-09-07T00:45:31.024Z,1.54
2022-09-07T00:46:33.768Z,1.49
2022-09-07T00:47:36.482Z,1.53
2022-09-07T00:48:39.242Z,1.90
2022-09-07T00:49:41.907Z,1.28
2022-09-07T00:50:44.682Z,1.41
2022-09-07T00:51:47.352Z,1.52
2022-09-07T00:52:50.126Z,1.75
2022-09-07T00:53:52.894Z,1.51
2022-09-07T00:54:55.668Z,1.64
2022-09-07T00:55:58.342Z,1.74
2022-09-07T00:57:01.115Z,1.66
2022-09-07T00:58:03.787Z,1.71
2022-09-07T00:59:06.449Z,1.65
2022-09-07T01:00:09.223Z,1.79
2022-09-07T01:01:11.790Z,1.64
2022-09-07T01:02:14.802Z,1.68
2022-09-07T01:03:17.649Z,1.85
2022-09-07T01:04:20.423Z,1.81
2022-09-07T01:05:23.091Z,1.80
2022-09-07T01:06:25.861Z,1.75
2022-09-07T01:07:28.626Z,1.80
2022-09-07T01:08:31.594Z,1.71
2022-09-07T01:09:34.276Z,1.82
2022-09-07T01:10:37.158Z,1.68
2022-09-07T01:11:40.029Z,1.63
2022-09-07T01:12:42.898Z,1.95
2022-09-07T01:13:45.771Z,2.07
2022-09-07T01:14:48.856Z,2.05
2022-09-07T01:15:51.884Z,1.88
2022-09-07T01:16:54.709Z,1.62
2022-09-07T01:17:57.376Z,1.80
2022-09-07T01:19:00.041Z,1.77
2022-09-07T01:20:02.723Z,2.05
2022-09-07T01:21:05.384Z,1.86
2022-09-07T01:22:08.155Z,2.00
2022-09-07T01:23:10.930Z,2.01
2022-09-07T01:24:13.705Z,2.04
2022-09-07T01:25:16.574Z,2.04
2022-09-07T01:26:19.449Z,2.13
2022-09-07T01:27:22.331Z,2.08
2022-09-07T01:28:25.118Z,1.87
2022-09-07T01:29:27.968Z,2.03
2022-09-07T01:30:30.753Z,2.21
2022-09-07T01:31:33.478Z,1.61
2022-09-07T01:32:36.293Z,1.68
2022-09-07T01:33:39.061Z,1.82
2022-09-07T01:34:41.828Z,1.70
2022-09-07T01:35:44.813Z,2.03
2022-09-07T01:36:47.482Z,1.92
2022-09-07T01:37:55.072Z,1.90
2022-09-07T01:38:54.663Z,1.84
2022-09-07T01:39:57.528Z,1.92
2022-09-07T01:41:00.315Z,2.16
2022-09-07T01:42:02.982Z,2.04
2022-09-07T01:43:05.747Z,2.10
2022-09-07T01:44:08.727Z,2.14
2022-09-07T01:45:11.510Z,2.26
2022-09-07T01:46:14.553Z,2.09
2022-09-07T01:47:17.252Z,2.09
2022-09-07T01:48:20.025Z,1.88
2022-09-07T01:49:22.804Z,1.78
2022-09-07T01:50:25.564Z,2.02
2022-09-07T01:51:28.234Z,1.95
2022-09-07T01:52:30.903Z,2.12
2022-09-07T01:53:33.582Z,2.00
2022-09-07T01:54:36.350Z,1.92
2022-09-07T01:55:39.117Z,1.78
2022-09-07T01:56:41.894Z,2.15
2022-09-07T01:57:44.663Z,1.85
2022-09-07T01:58:47.229Z,1.91
2022-09-07T01:59:49.999Z,2.01
2022-09-07T02:00:52.786Z,1.66
2022-09-07T02:01:55.498Z,1.76
2022-09-07T02:02:58.349Z,1.82
2022-09-07T02:04:01.091Z,1.52
2022-09-07T02:05:03.965Z,1.88
2022-09-07T02:06:06.739Z,1.55
2022-09-07T02:07:09.510Z,1.90
2022-09-07T02:08:12.290Z,1.90
2022-09-07T02:09:14.850Z,1.62
2022-09-07T02:10:17.626Z,1.43
2022-09-07T02:11:20.291Z,1.55
2022-09-07T02:12:22.969Z,1.92
2022-09-07T02:13:25.645Z,1.88
2022-09-07T02:14:28.416Z,1.52
2022-09-07T02:15:31.336Z,1.52
2022-09-07T02:16:34.047Z,1.55
2022-09-07T02:17:36.922Z,1.31
2022-09-07T02:18:39.698Z,1.34
2022-09-07T02:19:42.472Z,1.55
2022-09-07T02:20:45.139Z,1.45
2022-09-07T02:21:47.807Z,1.23
2022-09-07T02:22:50.575Z,1.36
2022-09-07T02:23:53.255Z,1.32
2022-09-07T02:24:55.916Z,1.13
2022-09-07T02:25:58.694Z,1.15
2022-09-07T02:27:01.468Z,1.15
2022-09-07T02:28:04.237Z,1.36
2022-09-07T02:29:06.919Z,1.28
2022-09-07T02:30:09.786Z,1.20
2022-09-07T02:31:12.587Z,1.25
2022-09-07T02:32:15.430Z,1.11
2022-09-07T02:33:18.209Z,1.41
2022-09-07T02:34:20.878Z,1.35
2022-09-07T02:35:23.545Z,1.33
2022-09-07T02:36:26.314Z,1.52
2022-09-07T02:37:29.190Z,1.15
2022-09-07T02:38:32.078Z,1.28
2022-09-07T02:39:34.864Z,1.12
2022-09-07T02:40:37.503Z,1.12
2022-09-07T02:41:40.277Z,1.23
2022-09-07T02:42:42.942Z,1.34
2022-09-07T02:43:45.717Z,1.12
2022-09-07T02:44:48.488Z,1.25
2022-09-07T02:45:51.189Z,1.28
2022-09-07T02:46:53.928Z,1.18
2022-09-07T02:47:56.604Z,1.11
2022-09-07T02:48:59.272Z,0.86
2022-09-07T02:50:02.043Z,0.97
2022-09-07T02:51:04.811Z,1.09
2022-09-07T02:52:07.592Z,1.10
2022-09-07T02:53:10.271Z,1.02
2022-09-07T02:54:13.132Z,1.05
2022-09-07T02:55:15.907Z,1.11
2022-09-07T02:56:18.675Z,1.26
2022-09-07T02:57:21.484Z,1.35
2022-09-07T02:58:24.311Z,1.30
2022-09-07T02:59:26.998Z,1.05
2022-09-07T03:00:29.776Z,1.03
2022-09-07T03:01:32.606Z,1.11
2022-09-07T03:02:35.593Z,1.06
2022-09-07T03:03:38.592Z,1.05
2022-09-07T03:04:41.476Z,0.93
2022-09-07T03:05:44.342Z,0.92
2022-09-07T03:06:47.218Z,1.02
2022-09-07T03:07:50.098Z,1.17
2022-09-07T03:08:52.871Z,1.01
2022-09-07T03:09:55.632Z,1.00
2022-09-07T03:10:58.416Z,0.93
2022-09-07T03:12:01.197Z,0.92
2022-09-07T03:13:03.856Z,1.05
2022-09-07T03:14:06.627Z,1.02
2022-09-07T03:15:09.399Z,0.95
2022-09-07T03:16:12.224Z,1.08
2022-09-07T03:17:14.947Z,0.94
2022-09-07T03:18:17.710Z,0.82
2022-09-07T03:19:20.595Z,1.06
2022-09-07T03:20:23.360Z,0.87
2022-09-07T03:21:26.031Z,1.11
2022-09-07T03:22:28.906Z,1.47
2022-09-07T03:23:31.783Z,0.89
2022-09-07T03:24:34.662Z,0.80
2022-09-07T03:25:37.530Z,0.81
2022-09-07T03:26:40.402Z,0.95
2022-09-07T03:27:43.170Z,0.84
2022-09-07T03:28:45.948Z,1.01
2022-09-07T03:29:48.733Z,1.24
2022-09-07T03:30:51.551Z,1.05
2022-09-07T03:31:54.272Z,1.10
2022-09-07T03:32:57.036Z,0.85
2022-09-07T03:33:59.910Z,0.94
2022-09-07T03:35:02.680Z,0.97
2022-09-07T03:36:05.471Z,1.09
2022-09-07T03:37:08.225Z,1.23
2022-09-07T03:38:10.905Z,1.28
2022-09-07T03:39:13.676Z,1.07
2022-09-07T03:40:16.445Z,0.88
2022-09-07T03:41:19.836Z,0.94
2022-09-07T03:42:22.510Z,0.96
2022-09-07T03:43:25.381Z,1.08
2022-09-07T03:44:28.251Z,1.02
2022-09-07T03:45:30.937Z,1.28
2022-09-07T03:46:33.893Z,1.18
2022-09-07T03:47:36.666Z,1.00
2022-09-07T03:48:39.345Z,1.01
2022-09-07T03:49:42.108Z,1.15
2022-09-07T03:50:44.878Z,1.62
2022-09-07T03:51:47.766Z,1.48
2022-09-07T03:52:50.542Z,1.50
2022-09-07T03:53:53.615Z,1.22
2022-09-07T03:54:56.282Z,1.25
2022-09-07T03:55:59.152Z,1.00
2022-09-07T03:57:02.032Z,1.15
2022-09-07T03:58:04.698Z,1.09
2022-09-07T03:59:07.482Z,1.23
2022-09-07T04:00:10.253Z,1.07
2022-09-07T04:01:12.979Z,0.92
2022-09-07T04:02:15.885Z,1.02
2022-09-07T04:03:18.562Z,0.98
2022-09-07T04:04:21.130Z,0.94
2022-09-07T04:05:23.902Z,1.07
2022-09-07T04:06:26.672Z,1.01
2022-09-07T04:07:29.447Z,0.95
2022-09-07T04:08:32.393Z,1.10
2022-09-07T04:09:35.188Z,1.04
2022-09-07T04:10:38.185Z,1.12
2022-09-07T04:12:57.639Z,1.30
2022-09-07T04:14:00.409Z,1.11
2022-09-07T04:15:03.076Z,1.18
2022-09-07T04:16:05.947Z,1.21
2022-09-07T04:17:08.887Z,1.10
2022-09-07T04:18:11.703Z,1.17
2022-09-07T04:19:14.581Z,1.22
2022-09-07T04:20:17.557Z,1.00
2022-09-07T04:21:20.330Z,1.18
2022-09-07T04:22:23.104Z,1.04
2022-09-07T04:23:26.191Z,1.23
2022-09-07T04:24:29.050Z,1.28
2022-09-07T04:25:32.064Z,0.99
2022-09-07T04:26:37.976Z,1.12
2022-09-07T04:27:40.958Z,1.07
2022-09-07T04:28:43.979Z,1.19
2022-09-07T04:29:46.810Z,1.15
2022-09-07T04:30:49.565Z,0.95
2022-09-07T04:31:52.673Z,1.03
2022-09-07T04:32:55.533Z,0.92
2022-09-07T04:33:58.202Z,0.84
2022-09-07T04:35:01.089Z,1.08
2022-09-07T04:36:04.180Z,1.13
2022-09-07T04:37:06.829Z,1.02
2022-09-07T04:38:09.498Z,1.08
2022-09-07T04:39:12.270Z,0.92
2022-09-07T04:40:15.104Z,1.19
2022-09-07T04:42:31.639Z,1.08
2022-09-07T04:43:34.721Z,0.88
2022-09-07T04:44:37.706Z,1.07
2022-09-07T04:45:40.968Z,1.00
2022-09-07T04:46:43.876Z,0.98
2022-09-07T04:47:46.838Z,0.99
2022-09-07T04:48:49.914Z,1.08
2022-09-07T04:49:52.788Z,1.13
2022-09-07T04:50:55.661Z,0.95
2022-09-07T04:51:58.640Z,0.95
2022-09-07T04:53:01.533Z,1.04
2022-09-07T04:54:04.494Z,1.04
2022-09-07T04:55:07.371Z,0.94
2022-09-07T04:56:12.824Z,1.04
2022-09-07T04:57:14.356Z,0.99
2022-09-07T04:58:18.364Z,0.94
2022-09-07T04:59:21.324Z,0.86
2022-09-07T05:00:24.719Z,0.92
2022-09-07T05:01:27.633Z,0.92
2022-09-07T05:02:30.651Z,0.92
2022-09-07T05:03:33.640Z,0.92
2022-09-07T05:04:36.932Z,0.98
2022-09-07T05:05:39.909Z,0.82
2022-09-07T05:06:42.893Z,0.92
2022-09-07T05:07:45.763Z,0.98
2022-09-07T05:08:48.641Z,0.93
2022-09-07T05:09:51.719Z,1.02
2022-09-07T05:10:54.711Z,1.08
2022-09-07T05:11:57.678Z,0.89
2022-09-07T05:13:00.447Z,0.97
2022-09-07T05:14:03.221Z,0.86
2022-09-07T05:15:05.899Z,1.03
2022-09-07T05:16:08.702Z,0.92
2022-09-07T05:17:11.318Z,0.87
2022-09-07T05:18:14.088Z,0.88
2022-09-07T05:19:16.877Z,0.81
2022-09-07T05:20:20.384Z,0.62
2022-09-07T05:21:23.238Z,0.81
2022-09-07T05:22:25.811Z,0.94
2022-09-07T05:23:28.483Z,0.88
2022-09-07T05:24:31.246Z,0.84
2022-09-07T05:25:34.018Z,1.08
2022-09-07T05:26:36.889Z,1.09
2022-09-07T05:27:39.663Z,0.93
2022-09-07T05:28:42.453Z,0.98
2022-09-07T05:31:53.517Z,1.09
2022-09-07T05:32:56.280Z,0.94
2022-09-07T05:35:03.280Z,0.92
2022-09-07T05:36:06.029Z,1.08
2022-09-07T05:37:08.916Z,0.96
2022-09-07T05:38:11.592Z,0.97
2022-09-07T05:39:14.455Z,1.03
2022-09-07T05:40:17.361Z,0.81
2022-09-07T05:41:20.208Z,0.83
2022-09-07T05:42:23.184Z,1.00
2022-09-07T05:43:25.959Z,1.02
2022-09-07T05:44:45.012Z,1.12
2022-09-07T05:45:33.325Z,1.14
2022-09-07T05:46:37.914Z,1.05
2022-09-07T05:47:40.941Z,1.14
2022-09-07T05:48:43.769Z,0.92
2022-09-07T05:49:46.380Z,1.14
2022-09-07T05:50:49.563Z,1.03
2022-09-07T05:51:53.775Z,0.93
2022-09-07T05:52:56.437Z,1.11
2022-09-07T05:53:59.317Z,1.41
2022-09-07T05:55:13.355Z,1.14
2022-09-07T05:56:07.243Z,1.17
2022-09-07T05:57:10.091Z,0.99
2022-09-07T05:58:12.762Z,1.25
2022-09-07T05:59:15.629Z,1.27
2022-09-07T06:00:18.608Z,1.07
2022-09-07T06:01:21.728Z,1.08
2022-09-07T06:02:24.755Z,0.93
2022-09-07T06:03:27.906Z,0.86
2022-09-07T06:04:30.825Z,1.06
2022-09-07T06:05:34.002Z,1.18
2022-09-07T06:06:36.773Z,1.09
2022-09-07T06:07:39.596Z,1.02
2022-09-07T06:08:42.527Z,0.91
2022-09-07T06:10:49.524Z,1.02
2022-09-07T06:11:52.172Z,1.05
2022-09-07T06:12:55.045Z,0.94
2022-09-07T06:13:58.032Z,0.98
2022-09-07T06:15:00.704Z,1.02
2022-09-07T06:16:03.980Z,1.02
2022-09-07T06:17:06.659Z,0.91
2022-09-07T06:18:09.423Z,0.86
2022-09-07T06:19:12.291Z,0.82
2022-09-07T06:20:15.187Z,0.83
2022-09-07T06:21:17.966Z,1.05
2022-09-07T06:22:21.041Z,0.75
2022-09-07T06:23:24.003Z,1.05
2022-09-07T06:24:26.779Z,0.99
2022-09-07T06:25:29.446Z,0.77
2022-09-07T06:26:32.435Z,0.81
2022-09-07T06:27:35.094Z,0.87
2022-09-07T06:28:38.287Z,0.82
2022-09-07T06:29:41.246Z,0.96
2022-09-07T06:30:44.225Z,1.12
2022-09-07T06:32:51.419Z,1.06
2022-09-07T06:33:54.197Z,1.09
2022-09-07T06:34:56.865Z,0.95
2022-09-07T06:35:59.736Z,1.03
2022-09-07T06:37:02.720Z,0.91
2022-09-07T06:38:05.378Z,0.98
2022-09-07T06:39:11.114Z,1.05
2022-09-07T06:40:13.879Z,1.26
2022-09-07T06:42:21.066Z,1.07
2022-09-07T06:43:23.845Z,1.08
2022-09-07T06:44:26.516Z,1.05
2022-09-07T06:45:29.436Z,1.13
2022-09-07T06:47:37.116Z,0.93
2022-09-07T06:48:43.857Z,1.10
2022-09-07T06:49:44.674Z,1.19
2022-09-07T06:50:47.647Z,1.30
2022-09-07T06:51:50.627Z,1.27
2022-09-07T06:55:02.537Z,1.24
2022-09-07T06:56:05.406Z,1.22
2022-09-07T06:57:08.375Z,1.31
2022-09-07T06:58:11.255Z,1.04
2022-09-07T06:59:14.023Z,1.02
2022-09-07T07:00:16.909Z,1.03
2022-09-07T07:01:20.024Z,1.22
2022-09-07T07:02:22.959Z,1.10
2022-09-07T07:03:26.201Z,1.25
2022-09-07T07:04:29.524Z,1.08
2022-09-07T07:05:32.300Z,1.10
2022-09-07T07:06:35.176Z,1.08
2022-09-07T07:07:37.943Z,1.22
2022-09-07T07:08:41.040Z,1.14
2022-09-07T07:09:43.795Z,1.22
2022-09-07T07:10:46.985Z,1.15
2022-09-07T07:11:50.059Z,1.12
2022-09-07T07:12:53.146Z,1.20
2022-09-07T07:13:57.878Z,1.09
2022-09-07T07:15:00.938Z,1.04
2022-09-07T07:16:04.161Z,1.06
2022-09-07T07:17:06.899Z,1.20
2022-09-07T07:18:20.850Z,1.45
2022-09-07T07:19:14.281Z,1.26
2022-09-07T07:20:17.150Z,1.25
2022-09-07T07:21:19.926Z,1.09
2022-09-07T07:22:45.616Z,0.95
2022-09-07T07:23:27.681Z,1.36
2022-09-07T07:24:30.493Z,1.35
2022-09-07T07:25:35.100Z,1.25
2022-09-07T07:26:38.110Z,1.26
2022-09-07T07:27:40.856Z,1.37
2022-09-07T07:29:47.947Z,1.17
2022-09-07T07:30:50.829Z,1.17
2022-09-07T07:31:53.598Z,1.20
2022-09-07T07:32:56.338Z,1.29
2022-09-07T07:34:02.363Z,1.56
2022-09-07T07:35:05.195Z,1.72
2022-09-07T07:36:08.060Z,1.49
2022-09-07T07:37:25.925Z,1.33
2022-09-07T07:40:41.020Z,1.55
2022-09-07T07:42:03.015Z,1.72
2022-09-07T07:42:49.050Z,1.45
2022-09-07T07:43:51.942Z,1.35
2022-09-07T07:46:01.222Z,1.55
2022-09-07T07:47:05.643Z,1.41
2022-09-07T07:48:08.653Z,1.48
2022-09-07T07:49:11.634Z,1.48
2022-09-07T07:50:31.221Z,1.45
2022-09-07T07:51:19.428Z,1.74
2022-09-07T07:53:42.741Z,1.49
2022-09-07T07:54:31.232Z,1.43
2022-09-07T07:55:49.586Z,1.35
2022-09-07T07:56:38.515Z,1.55
2022-09-07T07:57:41.389Z,1.47
2022-09-07T07:58:48.756Z,1.66
2022-09-07T07:59:54.881Z,1.60
2022-09-07T08:00:57.944Z,1.81
2022-09-07T08:02:01.104Z,1.64
2022-09-07T08:03:04.972Z,1.82
2022-09-07T08:04:09.396Z,1.69
2022-09-07T08:05:17.992Z,2.02
2022-09-07T08:06:21.696Z,1.73
2022-09-07T08:07:25.082Z,1.41
2022-09-07T08:08:28.367Z,1.41
2022-09-07T08:09:31.131Z,1.54
2022-09-07T08:10:34.213Z,1.30
2022-09-07T08:11:36.988Z,1.28
2022-09-07T08:12:40.388Z,1.38
2022-09-07T08:13:43.072Z,1.42
2022-09-07T08:14:48.293Z,1.65
2022-09-07T08:15:52.028Z,1.52
2022-09-07T08:16:55.386Z,1.63
2022-09-07T08:18:00.961Z,1.63
2022-09-07T08:19:03.865Z,1.61
2022-09-07T08:20:06.634Z,1.47
2022-09-07T08:21:13.209Z,1.46
2022-09-07T08:22:16.900Z,1.44
2022-09-07T08:23:24.238Z,1.54
2022-09-07T08:24:26.851Z,1.60
2022-09-07T08:25:30.155Z,1.45
2022-09-07T08:26:33.008Z,1.47
2022-09-07T08:27:35.978Z,1.40
2022-09-07T08:28:39.263Z,1.69
2022-09-07T08:29:42.237Z,1.69
2022-09-07T08:30:46.964Z,1.42
2022-09-07T08:31:49.878Z,1.53
2022-09-07T08:32:52.905Z,1.42
2022-09-07T08:33:55.891Z,1.54
2022-09-07T08:34:59.282Z,1.72
2022-09-07T08:36:11.370Z,1.53
2022-09-07T08:37:15.361Z,1.47
2022-09-07T08:38:21.153Z,1.59
2022-09-07T08:39:24.185Z,1.69
2022-09-07T08:40:27.173Z,1.87
2022-09-07T08:41:33.896Z,1.57
2022-09-07T08:42:41.867Z,1.67
2022-09-07T08:43:48.981Z,1.63
2022-09-07T08:44:49.217Z,1.65
2022-09-07T08:45:54.473Z,1.78
2022-09-07T08:46:57.359Z,1.55
2022-09-07T08:48:00.194Z,1.58
2022-09-07T08:49:02.877Z,1.71
2022-09-07T08:50:05.631Z,1.83
2022-09-07T08:51:08.404Z,2.02
2022-09-07T08:52:12.913Z,2.00
2022-09-07T08:53:20.362Z,1.84
2022-09-07T08:54:23.172Z,1.72
2022-09-07T08:55:39.152Z,1.69
2022-09-07T08:57:20.626Z,1.74
2022-09-07T08:57:49.406Z,1.83
2022-09-07T08:58:53.215Z,1.92
2022-09-07T08:59:56.502Z,2.00
2022-09-07T09:04:16.733Z,2.05
2022-09-07T09:05:18.057Z,1.69
2022-09-07T09:06:20.942Z,1.79
2022-09-07T09:07:32.173Z,1.64
2022-09-07T09:08:40.444Z,1.79
2022-09-07T09:09:46.789Z,1.81
2022-09-07T09:10:52.741Z,1.80
2022-09-07T09:11:56.073Z,1.82
2022-09-07T09:12:58.938Z,1.94
2022-09-07T09:14:06.999Z,1.97
2022-09-07T09:15:09.834Z,1.98
2022-09-07T09:16:12.660Z,2.18
2022-09-07T09:17:15.862Z,2.56
2022-09-07T09:18:19.937Z,2.25
2022-09-07T09:19:23.071Z,2.16
2022-09-07T09:20:25.818Z,2.04
2022-09-07T09:21:28.915Z,1.79
2022-09-07T09:23:53.796Z,1.80
2022-09-07T09:25:08.338Z,1.71
2022-09-07T09:26:11.127Z,1.70
2022-09-07T09:27:15.957Z,1.67
2022-09-07T09:28:21.887Z,1.85
2022-09-07T09:29:24.886Z,1.83
2022-09-07T09:30:27.948Z,1.90
2022-09-07T09:31:31.134Z,2.04
2022-09-07T09:32:38.388Z,2.12
2022-09-07T09:33:41.174Z,1.94
2022-09-07T09:34:44.045Z,1.80
2022-09-07T09:35:52.265Z,1.83
2022-09-07T09:36:55.647Z,1.81
2022-09-07T09:38:01.946Z,2.09
2022-09-07T09:39:04.668Z,1.65
2022-09-07T09:40:10.004Z,1.87
2022-09-07T09:41:12.671Z,1.97
2022-09-07T09:42:20.806Z,1.70
2022-09-07T09:43:25.245Z,1.49
2022-09-07T09:44:27.940Z,1.54
2022-09-07T09:46:12.287Z,1.58
2022-09-07T09:46:36.415Z,1.63
2022-09-07T09:47:39.306Z,1.52
2022-09-07T09:48:51.022Z,1.35
2022-09-07T09:49:53.877Z,1.55
2022-09-07T09:53:10.096Z,1.75
2022-09-07T09:54:13.277Z,1.57
2022-09-07T09:55:33.766Z,1.46
2022-09-07T09:56:20.981Z,1.29
2022-09-07T09:57:28.253Z,1.35
2022-09-07T10:01:21.105Z,1.59
2022-09-07T10:04:59.767Z,1.37
2022-09-07T10:06:02.710Z,1.35
2022-09-07T10:07:07.223Z,1.32
2022-09-07T10:08:09.811Z,1.41
2022-09-07T10:09:19.068Z,1.32
2022-09-07T10:10:25.961Z,1.51
2022-09-07T10:12:05.036Z,1.43
2022-09-07T10:12:32.865Z,1.40
2022-09-07T10:13:36.044Z,1.52
2022-09-07T10:14:45.254Z,1.49
2022-09-07T10:15:52.440Z,1.39
2022-09-07T10:17:02.075Z,1.44
2022-09-07T10:18:05.054Z,1.27
2022-09-07T10:19:13.576Z,1.21
2022-09-07T10:20:30.259Z,1.58
2022-09-07T10:21:33.236Z,1.53
2022-09-07T10:22:36.007Z,1.28
2022-09-07T10:23:41.301Z,1.48
2022-09-07T10:24:45.304Z,1.67
2022-09-07T10:25:47.903Z,1.50
2022-09-07T10:26:50.692Z,1.57
2022-09-07T10:27:54.068Z,1.40
2022-09-07T10:29:14.609Z,1.30
2022-09-07T10:30:04.260Z,1.37
2022-09-07T10:31:11.022Z,1.35
2022-09-07T10:32:11.088Z,1.45
2022-09-07T10:33:14.083Z,1.28
2022-09-07T10:34:32.025Z,1.58
2022-09-07T10:35:23.217Z,1.63
2022-09-07T10:36:29.991Z,1.60
2022-09-07T10:37:34.588Z,1.71
2022-09-07T10:38:37.359Z,1.75
2022-09-07T10:39:40.172Z,1.72
2022-09-07T10:40:43.205Z,1.45
2022-09-07T10:41:46.390Z,1.72
2022-09-07T10:44:00.130Z,1.76
2022-09-07T10:45:05.457Z,1.94
2022-09-07T10:46:10.527Z,1.97
2022-09-07T10:47:18.702Z,1.95
2022-09-07T10:48:21.352Z,1.71
2022-09-07T10:49:31.666Z,1.65
2022-09-07T10:50:34.963Z,1.57
2022-09-07T10:51:42.231Z,1.63
2022-09-07T10:52:45.322Z,1.63
2022-09-07T10:55:02.004Z,1.68
2022-09-07T10:56:05.320Z,1.57
2022-09-07T10:57:14.011Z,1.52
2022-09-07T10:58:16.899Z,1.41
2022-09-07T10:59:23.068Z,1.26
2022-09-07T11:00:26.144Z,1.38
2022-09-07T11:01:42.487Z,1.52
2022-09-07T11:04:00.088Z,1.52
2022-09-07T11:05:09.649Z,1.23
2022-09-07T11:06:17.949Z,1.24
2022-09-07T11:07:20.953Z,1.29
2022-09-07T11:08:26.868Z,1.24
2022-09-07T11:09:44.421Z,1.31
2022-09-07T11:12:07.905Z,1.37
2022-09-07T11:13:11.587Z,1.40
2022-09-07T11:14:18.928Z,1.16
2022-09-07T11:15:21.742Z,1.33
2022-09-07T11:17:30.627Z,1.41
2022-09-07T11:18:42.813Z,1.34
2022-09-07T11:19:45.630Z,1.24
2022-09-07T11:20:49.123Z,1.12
2022-09-07T11:21:59.504Z,1.48
2022-09-07T11:23:05.620Z,1.20
2022-09-07T11:24:08.793Z,1.59
2022-09-07T11:25:30.022Z,1.53
2022-09-07T11:26:36.459Z,1.55
2022-09-07T11:27:41.652Z,1.53
2022-09-07T11:29:56.552Z,1.40
2022-09-07T11:31:00.664Z,1.30
2022-09-07T11:32:03.457Z,1.48
2022-09-07T11:33:09.516Z,1.56
2022-09-07T11:34:26.279Z,1.57
2022-09-07T11:36:44.208Z,1.73
2022-09-07T11:37:47.498Z,1.80
2022-09-07T11:38:55.596Z,1.40
2022-09-07T11:40:09.195Z,1.79
2022-09-07T11:41:12.092Z,1.88
2022-09-07T11:43:19.797Z,1.99
2022-09-07T11:44:22.563Z,2.18
2022-09-07T11:45:27.176Z,1.77
2022-09-07T11:46:31.794Z,1.43
2022-09-07T11:47:35.077Z,1.69
2022-09-07T11:48:38.557Z,1.74
2022-09-07T11:49:47.722Z,1.85
2022-09-07T11:50:48.513Z,1.46
2022-09-07T11:51:54.087Z,1.50
2022-09-07T11:52:59.229Z,1.73
2022-09-07T11:54:05.976Z,1.75
2022-09-07T11:55:12.508Z,1.41
2022-09-07T11:56:15.278Z,1.56
2022-09-07T11:57:18.350Z,1.59
2022-09-07T11:58:22.665Z,1.75
2022-09-07T11:59:25.328Z,1.49
2022-09-07T12:01:49.015Z,1.59
2022-09-07T12:03:00.618Z,1.68
2022-09-07T12:04:06.048Z,1.78
2022-09-07T12:05:09.323Z,1.87
2022-09-07T12:06:12.499Z,1.71
2022-09-07T12:07:15.667Z,1.59
2022-09-07T12:08:18.648Z,1.76
2022-09-07T12:09:22.033Z,1.87
2022-09-07T12:10:25.009Z,1.69
2022-09-07T12:11:28.077Z,1.63
2022-09-07T12:12:38.438Z,1.80
2022-09-07T12:13:41.620Z,2.16
2022-09-07T12:14:52.119Z,2.27
2022-09-07T12:16:00.099Z,1.88
2022-09-07T12:17:02.931Z,1.84
2022-09-07T12:18:05.610Z,1.55
2022-09-07T12:19:08.696Z,2.01
2022-09-07T12:20:11.782Z,2.05
2022-09-07T12:21:15.869Z,1.93
2022-09-07T12:22:20.451Z,1.63
2022-09-07T12:23:23.562Z,1.99
2022-09-07T12:24:28.251Z,2.01
2022-09-07T12:25:31.164Z,1.70
2022-09-07T12:26:34.133Z,2.10
2022-09-07T12:27:39.581Z,1.62
2022-09-07T12:28:42.764Z,1.80
2022-09-07T12:29:46.034Z,1.71
2022-09-07T12:30:49.351Z,2.02
2022-09-07T12:32:52.431Z,1.95
2022-09-07T12:32:58.563Z,2.27
2022-09-07T12:34:01.729Z,2.02
2022-09-07T12:35:04.918Z,1.84
2022-09-07T12:36:08.300Z,1.87
2022-09-07T12:37:12.608Z,1.95
2022-09-07T12:38:18.356Z,1.96
2022-09-07T12:39:28.141Z,1.67
2022-09-07T12:40:31.367Z,1.80
2022-09-07T12:41:36.510Z,2.30
2022-09-07T12:42:47.034Z,1.98
2022-09-07T12:43:50.132Z,1.68
2022-09-07T12:44:53.104Z,1.82
2022-09-07T12:45:56.351Z,1.68
2022-09-07T12:46:59.580Z,1.65
2022-09-07T12:48:04.351Z,1.84
2022-09-07T12:49:06.963Z,1.72
2022-09-07T12:50:10.257Z,2.16
2022-09-07T12:51:16.070Z,1.86
2022-09-07T12:52:20.870Z,2.04
2022-09-07T12:53:23.681Z,1.89
2022-09-07T12:54:29.535Z,2.38
2022-09-07T12:56:15.610Z,1.87
2022-09-07T12:56:39.277Z,1.78
2022-09-07T12:57:42.240Z,2.02
2022-09-07T12:58:45.128Z,2.09
2022-09-07T12:59:48.093Z,1.93
2022-09-07T13:00:51.181Z,1.75
2022-09-07T13:01:54.138Z,1.71
2022-09-07T13:02:56.918Z,1.98
2022-09-07T13:03:59.843Z,2.02
2022-09-07T13:05:02.581Z,2.22
2022-09-07T13:06:05.682Z,2.03
2022-09-07T13:07:08.658Z,2.02
2022-09-07T13:08:11.732Z,1.73
2022-09-07T13:09:14.687Z,1.86
2022-09-07T13:10:31.278Z,1.88
2022-09-07T13:11:34.257Z,1.83
2022-09-07T13:12:53.159Z,1.55
2022-09-07T13:14:49.181Z,1.98
2022-09-07T13:15:58.180Z,1.94
2022-09-07T13:17:16.833Z,1.78
2022-09-07T13:18:06.049Z,1.81
2022-09-07T13:19:08.928Z,1.81
2022-09-07T13:20:12.013Z,1.88
2022-09-07T13:21:15.003Z,1.72
2022-09-07T13:22:23.365Z,1.94
2022-09-07T13:23:26.596Z,1.73
2022-09-07T13:24:58.887Z,1.95
2022-09-07T13:25:34.462Z,2.03
2022-09-07T13:26:37.233Z,1.83
2022-09-07T13:27:40.533Z,1.75
2022-09-07T13:28:43.598Z,2.08
2022-09-07T13:29:46.586Z,1.66
2022-09-07T13:30:51.850Z,2.22
2022-09-07T13:31:55.087Z,1.99
2022-09-07T13:33:13.550Z,2.06
2022-09-07T13:34:02.684Z,1.87
2022-09-07T13:35:07.813Z,1.86
2022-09-07T13:36:10.510Z,1.77
2022-09-07T13:37:13.464Z,1.79
2022-09-07T13:38:16.445Z,1.90
2022-09-07T13:39:19.717Z,1.98
2022-09-07T13:40:22.588Z,1.88
2022-09-07T13:41:25.367Z,1.84
2022-09-07T13:42:28.034Z,2.08
2022-09-07T13:43:31.214Z,2.25
2022-09-07T13:44:34.501Z,1.92
2022-09-07T13:45:37.885Z,2.14
2022-09-07T13:46:41.169Z,1.97
2022-09-07T13:47:44.146Z,1.99
2022-09-07T13:48:47.431Z,1.90
2022-09-07T13:49:55.561Z,2.14
2022-09-07T13:50:55.749Z,1.84
2022-09-07T13:51:59.232Z,1.99
2022-09-07T13:53:02.513Z,1.99
2022-09-07T13:54:05.656Z,2.32
2022-09-07T13:55:08.706Z,2.13
2022-09-07T13:56:11.748Z,1.94
2022-09-07T13:57:15.033Z,2.23
2022-09-07T13:58:17.811Z,2.02
2022-09-07T13:59:20.495Z,2.37
2022-09-07T14:00:23.456Z,2.22
2022-09-07T14:01:26.820Z,2.38
2022-09-07T14:02:29.789Z,2.41
2022-09-07T14:03:33.514Z,2.48
2022-09-07T14:04:36.721Z,2.48
2022-09-07T14:05:39.780Z,2.98
2022-09-07T14:06:43.160Z,2.27
2022-09-07T14:07:46.457Z,2.26
2022-09-07T14:08:49.630Z,2.29
2022-09-07T14:09:52.396Z,2.32
2022-09-07T14:10:55.478Z,2.12
2022-09-07T14:11:58.450Z,2.27
2022-09-07T14:13:01.434Z,2.53
2022-09-07T14:14:04.208Z,2.32
2022-09-07T14:15:09.187Z,2.36
2022-09-07T14:16:11.749Z,2.27
2022-09-07T14:17:14.672Z,2.14
2022-09-07T14:18:17.662Z,2.49
2022-09-07T14:19:20.668Z,2.31
2022-09-07T14:20:23.803Z,2.86
2022-09-07T14:21:27.128Z,2.57
2022-09-07T14:22:30.274Z,2.49
2022-09-07T14:23:34.094Z,2.32
2022-09-07T14:24:37.258Z,2.48
2022-09-07T14:26:45.376Z,2.27
2022-09-07T14:27:48.739Z,2.56
2022-09-07T14:28:51.928Z,2.59
2022-09-07T14:29:54.899Z,2.16
2022-09-07T14:30:58.055Z,2.34
2022-09-07T14:32:01.476Z,2.39
2022-09-07T14:33:04.369Z,2.64
2022-09-07T14:34:07.629Z,2.99
2022-09-07T14:35:10.402Z,3.09
2022-09-07T14:36:39.449Z,2.60
2022-09-07T14:37:18.511Z,2.61
2022-09-07T14:39:26.563Z,2.75
2022-09-07T14:40:32.863Z,2.75
2022-09-07T14:41:36.147Z,2.74
2022-09-07T14:42:39.434Z,2.55
2022-09-07T14:43:42.413Z,2.58
2022-09-07T14:44:45.672Z,2.45
2022-09-07T14:45:49.612Z,2.55
2022-09-07T14:46:56.501Z,2.60
2022-09-07T14:47:57.589Z,2.64
2022-09-07T14:49:00.770Z,2.95
2022-09-07T14:50:04.059Z,2.94
2022-09-07T14:51:29.804Z,2.94